createdAt,value
2018-11-29T05:00:31.906Z,70.95
2018-11-29T05:01:31.896Z,71.30
2018-11-29T05:02:31.873Z,72.55
2018-11-29T05:03:31.874Z,70.88
2018-11-29T05:04:31.849Z,71.26
2018-11-29T05:05:31.838Z,71.50
2018-11-29T05:06:31.829Z,70.88
2018-11-29T05:07:31.816Z,70.43
2018-11-29T05:08:31.820Z,70.67
2018-11-29T05:09:31.795Z,70.84
2018-11-29T05:10:31.785Z,71.81
2018-11-29T05:11:31.774Z,73.24
2018-11-29T05:12:31.758Z,74.11
2018-11-29T05:13:31.767Z,75.05
2018-11-29T05:14:31.741Z,74.84
2018-11-29T05:15:31.729Z,72.13
2018-11-29T05:16:31.717Z,73.59
2018-11-29T05:17:31.706Z,74.74
2018-11-29T05:18:32.448Z,74.01
2018-11-29T05:19:31.683Z,74.01
2018-11-29T05:20:31.677Z,73.00
2018-11-29T05:21:31.666Z,73.21
2018-11-29T05:22:31.649Z,74.15
2018-11-29T05:23:31.658Z,72.89
2018-11-29T05:24:31.632Z,72.16
2018-11-29T05:25:31.620Z,71.12
2018-11-29T05:26:31.610Z,72.68
2018-11-29T05:27:31.596Z,72.58
2018-11-29T05:28:31.611Z,73.21
2018-11-29T05:29:31.574Z,72.68
2018-11-29T05:30:31.563Z,72.47
2018-11-29T05:31:31.550Z,73.21
2018-11-29T05:32:31.542Z,74.77
2018-11-29T05:33:31.546Z,73.83
2018-11-29T05:34:31.533Z,72.27
2018-11-29T05:35:31.521Z,72.06
2018-11-29T05:36:31.495Z,73.72
2018-11-29T05:37:31.487Z,72.68
2018-11-29T05:38:31.500Z,73.34
2018-11-29T05:39:31.464Z,73.03
2018-11-29T05:40:31.454Z,72.92
2018-11-29T05:41:31.442Z,73.45
2018-11-29T05:42:31.429Z,72.82
2018-11-29T05:43:31.431Z,72.51
2018-11-29T05:44:31.411Z,72.61
2018-11-29T05:45:31.396Z,72.68
2018-11-29T05:46:31.385Z,72.41
2018-11-29T05:47:31.373Z,73.03
2018-11-29T05:48:31.378Z,73.97
2018-11-29T05:49:31.357Z,72.72
2018-11-29T05:50:31.340Z,72.51
2018-11-29T05:51:31.328Z,74.49
2018-11-29T05:52:31.316Z,73.76
2018-11-29T05:53:31.324Z,74.07
2018-11-29T05:54:31.298Z,73.34
2018-11-29T05:55:31.287Z,72.92
2018-11-29T05:56:31.275Z,73.76
2018-11-29T05:57:31.264Z,73.45
2018-11-29T05:58:31.285Z,71.98
2018-11-29T05:59:31.241Z,71.78
2018-11-29T06:00:31.230Z,72.72
2018-11-29T06:01:31.217Z,72.92
2018-11-29T06:02:31.207Z,72.51
2018-11-29T06:03:31.207Z,71.98
2018-11-29T06:04:31.205Z,71.57
2018-11-29T06:05:31.173Z,72.82
2018-11-29T06:06:31.163Z,71.57
2018-11-29T06:07:31.231Z,71.57
2018-11-29T06:08:31.140Z,72.30
2018-11-29T06:09:31.144Z,72.41
2018-11-29T06:10:31.120Z,73.24
2018-11-29T06:11:31.109Z,72.92
2018-11-29T06:12:31.098Z,71.95
2018-11-29T06:13:31.086Z,71.36
2018-11-29T06:14:31.094Z,70.94
2018-11-29T06:15:31.069Z,71.36
2018-11-29T06:16:31.061Z,71.98
2018-11-29T06:17:31.041Z,72.09
2018-11-29T06:18:31.030Z,71.85
2018-11-29T06:19:31.035Z,71.88
2018-11-29T06:20:31.007Z,71.98
2018-11-29T06:21:30.997Z,72.41
2018-11-29T06:22:30.985Z,71.98
2018-11-29T06:23:30.978Z,71.88
2018-11-29T06:24:30.978Z,71.04
2018-11-29T06:25:30.951Z,70.94
2018-11-29T06:26:30.943Z,71.26
2018-11-29T06:27:30.933Z,71.22
2018-11-29T06:28:30.920Z,71.33
2018-11-29T06:29:30.922Z,70.18
2018-11-29T06:30:30.901Z,70.81
2018-11-29T06:31:30.887Z,71.47
2018-11-29T06:32:30.863Z,71.26
2018-11-29T06:33:30.868Z,71.64
2018-11-29T06:34:30.869Z,72.72
2018-11-29T06:35:30.841Z,71.12
2018-11-29T06:36:30.830Z,71.67
2018-11-29T06:37:30.818Z,71.57
2018-11-29T06:38:30.807Z,72.41
2018-11-29T06:39:30.812Z,72.41
2018-11-29T06:40:30.800Z,72.09
2018-11-29T06:41:30.798Z,72.41
2018-11-29T06:42:30.767Z,72.72
2018-11-29T06:43:30.754Z,71.57
2018-11-29T06:44:30.755Z,71.98
2018-11-29T06:45:30.732Z,72.06
2018-11-29T06:46:30.722Z,71.78
2018-11-29T06:47:30.708Z,71.22
2018-11-29T06:48:30.703Z,70.91
2018-11-29T06:49:30.698Z,71.85
2018-11-29T06:50:30.670Z,70.91
2018-11-29T06:51:30.668Z,71.40
2018-11-29T06:52:30.671Z,71.53
2018-11-29T06:53:30.641Z,70.56
2018-11-29T06:54:30.645Z,69.84
2018-11-29T06:55:30.617Z,70.36
2018-11-29T06:56:30.606Z,69.42
2018-11-29T06:57:30.620Z,70.88
2018-11-29T06:58:30.583Z,71.09
2018-11-29T06:59:30.590Z,71.30
2018-11-29T07:00:30.562Z,70.04
2018-11-29T07:01:30.553Z,71.40
2018-11-29T07:02:30.537Z,71.30
2018-11-29T07:03:30.527Z,70.64
2018-11-29T07:04:30.533Z,70.56
2018-11-29T07:05:30.515Z,71.71
2018-11-29T07:06:30.501Z,69.63
2018-11-29T07:07:30.487Z,69.73
2018-11-29T07:08:30.474Z,69.59
2018-11-29T07:09:30.480Z,69.84
2018-11-29T07:10:30.452Z,70.56
2018-11-29T07:11:30.440Z,69.94
2018-11-29T07:12:30.432Z,69.73
2018-11-29T07:13:30.417Z,69.31
2018-11-29T07:14:30.437Z,70.07
2018-11-29T07:15:30.394Z,69.94
2018-11-29T07:16:30.387Z,69.10
2018-11-29T07:17:30.389Z,69.63
2018-11-29T07:18:30.364Z,71.19
2018-11-29T07:19:30.375Z,69.87
2018-11-29T07:20:30.343Z,69.31
2018-11-29T07:21:30.335Z,69.73
2018-11-29T07:22:30.320Z,71.81
2018-11-29T07:23:30.310Z,72.06
2018-11-29T07:24:30.322Z,70.15
2018-11-29T07:25:30.284Z,70.60
2018-11-29T07:26:30.275Z,70.25
2018-11-29T07:27:30.263Z,72.02
2018-11-29T07:28:30.251Z,72.86
2018-11-29T07:29:30.251Z,73.21
2018-11-29T07:30:30.236Z,71.85
2018-11-29T07:31:30.218Z,71.43
2018-11-29T07:32:30.210Z,70.15
2018-11-29T07:33:30.194Z,70.46
2018-11-29T07:34:30.199Z,70.98
2018-11-29T07:35:30.172Z,69.73
2018-11-29T07:36:30.165Z,70.46
2018-11-29T07:37:30.151Z,69.31
2018-11-29T07:38:30.138Z,70.15
2018-11-29T07:39:30.142Z,70.36
2018-11-29T07:40:30.121Z,69.94
2018-11-29T07:41:30.123Z,70.15
2018-11-29T07:42:30.113Z,71.19
2018-11-29T07:43:30.098Z,71.19
2018-11-29T07:44:30.105Z,69.42
2018-11-29T07:45:30.068Z,71.40
2018-11-29T07:46:30.055Z,71.50
2018-11-29T07:47:30.041Z,70.74
2018-11-29T07:48:30.029Z,70.56
2018-11-29T07:49:30.033Z,70.88
2018-11-29T07:50:30.007Z,69.94
2018-11-29T07:51:29.994Z,68.79
2018-11-29T07:52:29.991Z,70.22
2018-11-29T07:53:29.971Z,69.07
2018-11-29T07:54:29.985Z,70.64
2018-11-29T07:55:29.966Z,70.12
2018-11-29T07:56:29.940Z,68.87
2018-11-29T07:57:29.925Z,68.87
2018-11-29T07:58:29.917Z,68.55
2018-11-29T07:59:29.919Z,68.03
2018-11-29T08:00:29.904Z,69.07
2018-11-29T08:01:29.878Z,68.21
2018-11-29T08:02:29.870Z,67.69
2018-11-29T08:03:29.858Z,67.14
2018-11-29T08:04:29.882Z,67.83
2018-11-29T08:05:29.839Z,67.21
2018-11-29T08:06:29.827Z,68.77
2018-11-29T08:07:29.819Z,67.52
2018-11-29T08:08:29.806Z,67.21
2018-11-29T08:09:29.794Z,67.11
2018-11-29T08:10:30.998Z,66.27
2018-11-29T08:11:29.771Z,65.23
2018-11-29T08:12:29.761Z,66.17
2018-11-29T08:13:29.745Z,66.35
2018-11-29T08:14:29.738Z,66.17
2018-11-29T08:15:29.737Z,66.45
2018-11-29T08:16:29.717Z,66.14
2018-11-29T08:17:29.710Z,66.35
2018-11-29T08:18:29.691Z,66.77
2018-11-29T08:19:29.680Z,67.49
2018-11-29T08:20:29.687Z,67.60
2018-11-29T08:21:29.657Z,66.66
2018-11-29T08:22:29.649Z,66.03
2018-11-29T08:23:31.953Z,66.35
2018-11-29T08:24:29.626Z,66.45
2018-11-29T08:25:29.629Z,67.36
2018-11-29T08:26:29.606Z,65.90
2018-11-29T08:27:29.599Z,65.38
2018-11-29T08:28:29.589Z,65.38
2018-11-29T08:29:35.020Z,64.76
2018-11-29T08:30:30.571Z,64.94
2018-11-29T08:31:29.550Z,65.25
2018-11-29T08:32:29.538Z,64.73
2018-11-29T08:33:29.527Z,64.83
2018-11-29T08:34:29.516Z,65.14
2018-11-29T08:35:29.513Z,63.59
2018-11-29T08:36:29.497Z,63.07
2018-11-29T08:37:29.478Z,63.79
2018-11-29T08:38:31.534Z,64.42
2018-11-29T08:39:29.460Z,64.21
2018-11-29T08:40:29.472Z,65.04
2018-11-29T08:41:29.437Z,65.45
2018-11-29T08:42:29.425Z,63.79
2018-11-29T08:43:29.428Z,65.25
2018-11-29T08:44:29.403Z,64.94
2018-11-29T08:45:29.404Z,65.45
2018-11-29T08:46:29.377Z,65.45
2018-11-29T08:47:29.372Z,65.35
2018-11-29T08:48:29.358Z,65.04
2018-11-29T08:49:29.346Z,65.35
2018-11-29T08:50:29.347Z,64.94
2018-11-29T08:51:29.323Z,65.11
2018-11-29T08:52:29.312Z,64.90
2018-11-29T08:53:29.303Z,66.57
2018-11-29T08:54:29.294Z,67.19
2018-11-29T08:55:29.295Z,64.70
2018-11-29T08:56:29.267Z,63.97
2018-11-29T08:57:29.255Z,63.97
2018-11-29T08:58:29.265Z,63.63
2018-11-29T08:59:29.236Z,63.73
2018-11-29T09:00:29.253Z,64.46
2018-11-29T09:01:29.214Z,64.90
2018-11-29T09:02:29.203Z,64.80
2018-11-29T09:03:29.191Z,64.39
2018-11-29T09:04:29.180Z,65.22
2018-11-29T09:05:33.799Z,64.39
2018-11-29T09:06:30.158Z,63.76
2018-11-29T09:07:29.148Z,63.84
2018-11-29T09:08:29.135Z,64.87
2018-11-29T09:09:29.127Z,65.29
2018-11-29T09:10:31.715Z,64.46
2018-11-29T09:11:29.102Z,64.98
2018-11-29T09:12:29.089Z,64.46
2018-11-29T09:13:29.078Z,64.04
2018-11-29T09:14:29.067Z,65.81
2018-11-29T09:15:29.072Z,65.70
2018-11-29T09:16:29.045Z,65.29
2018-11-29T09:17:29.036Z,65.39
2018-11-29T09:18:29.017Z,65.39
2018-11-29T09:19:29.010Z,65.37
2018-11-29T09:20:29.019Z,64.75
2018-11-29T09:21:32.962Z,64.43
2018-11-29T09:22:28.975Z,64.85
2018-11-29T09:23:28.963Z,65.16
2018-11-29T09:24:28.952Z,65.16
2018-11-29T09:25:28.957Z,64.23
2018-11-29T09:26:28.933Z,66.20
2018-11-29T09:27:28.922Z,65.37
2018-11-29T09:28:28.915Z,65.26
2018-11-29T09:29:28.898Z,65.37
2018-11-29T09:30:28.972Z,66.61
2018-11-29T09:31:28.881Z,65.37
2018-11-29T09:32:30.999Z,64.02
2018-11-29T09:33:29.263Z,65.26
2018-11-29T09:34:29.327Z,65.37
2018-11-29T09:35:29.053Z,64.85
2018-11-29T09:36:29.412Z,64.40
2018-11-29T09:37:28.866Z,64.09
2018-11-29T09:38:31.004Z,63.89
2018-11-29T09:39:28.787Z,64.20
2018-11-29T09:40:28.791Z,63.37
2018-11-29T09:41:28.768Z,63.16
2018-11-29T09:42:28.753Z,64.09
2018-11-29T09:43:28.743Z,62.43
2018-11-29T09:44:28.755Z,64.17
2018-11-29T09:45:28.737Z,65.83
2018-11-29T09:46:28.711Z,61.57
2018-11-29T09:47:28.694Z,62.40
2018-11-29T09:48:28.687Z,61.78
2018-11-29T09:49:28.667Z,62.40
2018-11-29T09:50:28.682Z,61.05
2018-11-29T09:51:28.651Z,62.99
2018-11-29T09:52:28.641Z,62.16
2018-11-29T09:53:28.629Z,63.41
2018-11-29T09:54:28.614Z,63.20
2018-11-29T09:55:28.624Z,63.62
2018-11-29T09:56:28.595Z,63.82
2018-11-29T09:57:28.585Z,63.72
2018-11-29T09:58:28.574Z,63.44
2018-11-29T09:59:28.563Z,63.13
2018-11-29T10:00:28.809Z,63.62
2018-11-29T10:01:28.545Z,65.00
2018-11-29T10:02:28.531Z,64.27
2018-11-29T10:03:28.521Z,62.40
2018-11-29T10:04:28.508Z,61.47
2018-11-29T10:05:28.509Z,62.61
2018-11-29T10:06:28.487Z,60.82
2018-11-29T10:07:28.476Z,62.79
2018-11-29T10:08:28.457Z,62.27
2018-11-29T10:09:28.454Z,64.14
2018-11-29T10:10:28.471Z,64.03
2018-11-29T10:11:28.433Z,64.86
2018-11-29T10:12:28.418Z,61.36
2018-11-29T10:13:28.407Z,60.93
2018-11-29T10:14:28.399Z,61.96
2018-11-29T10:15:28.398Z,61.55
2018-11-29T10:16:28.395Z,61.65
2018-11-29T10:17:28.363Z,59.24
2018-11-29T10:18:28.350Z,58.62
2018-11-29T10:19:28.340Z,58.90
2018-11-29T10:20:28.328Z,60.04
2018-11-29T10:21:28.332Z,58.80
2018-11-29T10:22:28.304Z,57.42
2018-11-29T10:23:28.301Z,57.42
2018-11-29T10:24:28.284Z,60.84
2018-11-29T10:25:28.269Z,58.25
2018-11-29T10:26:28.277Z,59.08
2018-11-29T10:27:28.253Z,60.22
2018-11-29T10:28:28.238Z,58.04
2018-11-29T10:29:28.226Z,60.11
2018-11-29T10:30:28.216Z,58.87
2018-11-29T10:31:28.221Z,59.19
2018-11-29T10:32:28.195Z,59.29
2018-11-29T10:33:28.182Z,60.42
2018-11-29T10:34:28.172Z,59.08
2018-11-29T10:35:28.159Z,58.36
2018-11-29T10:36:28.160Z,58.44
2018-11-29T10:37:28.136Z,59.23
2018-11-29T10:38:28.126Z,59.64
2018-11-29T10:39:28.115Z,56.44
2018-11-29T10:40:28.101Z,58.09
2018-11-29T10:41:28.107Z,57.89
2018-11-29T10:42:28.078Z,59.85
2018-11-29T10:43:28.068Z,59.85
2018-11-29T10:44:28.058Z,60.06
2018-11-29T10:45:28.030Z,59.34
2018-11-29T10:46:28.047Z,59.03
2018-11-29T10:47:30.021Z,59.75
2018-11-29T10:48:28.014Z,61.51
2018-11-29T10:49:28.021Z,61.20
2018-11-29T10:50:27.988Z,60.89
2018-11-29T10:51:27.991Z,60.81
2018-11-29T10:52:27.965Z,59.88
2018-11-29T10:53:27.953Z,61.54
2018-11-29T10:54:27.943Z,61.74
2018-11-29T10:55:27.931Z,59.57
2018-11-29T10:56:27.949Z,59.34
2018-11-29T10:57:27.913Z,59.03
2018-11-29T10:58:27.896Z,59.34
2018-11-29T10:59:27.886Z,60.99
2018-11-29T11:00:27.875Z,59.55
2018-11-29T11:01:27.875Z,58.20
2018-11-29T11:02:27.852Z,56.96
2018-11-29T11:03:27.845Z,59.44
2018-11-29T11:04:27.831Z,60.75
2018-11-29T11:05:27.862Z,60.68
2018-11-29T11:06:27.826Z,60.78
2018-11-29T11:07:27.797Z,60.37
2018-11-29T11:08:27.786Z,60.78
2018-11-29T11:09:27.873Z,63.78
2018-11-29T11:10:27.762Z,64.09
2018-11-29T11:11:27.765Z,61.92
2018-11-29T11:12:27.728Z,60.78
2018-11-29T11:13:27.726Z,61.40
2018-11-29T11:14:27.717Z,60.78
2018-11-29T11:15:27.707Z,60.06
2018-11-29T11:16:27.709Z,59.75
2018-11-29T11:17:27.686Z,61.40
2018-11-29T11:18:27.671Z,59.95
2018-11-29T11:19:27.663Z,59.23
2018-11-29T11:20:27.657Z,56.21
2018-11-29T11:21:27.650Z,55.59
2018-11-29T11:22:27.627Z,58.59
2018-11-29T11:23:27.617Z,59.08
2018-11-29T11:24:27.605Z,54.12
2018-11-29T11:25:27.592Z,54.92
2018-11-29T11:26:27.592Z,55.02
2018-11-29T11:27:27.570Z,54.30
2018-11-29T11:28:27.559Z,53.06
2018-11-29T11:29:27.549Z,53.06
2018-11-29T11:30:27.535Z,53.96
2018-11-29T11:31:31.091Z,55.20
2018-11-29T11:32:27.528Z,54.58
2018-11-29T11:33:27.501Z,56.96
2018-11-29T11:34:27.490Z,59.12
2018-11-29T11:35:27.479Z,58.92
2018-11-29T11:36:27.484Z,56.85
2018-11-29T11:37:27.457Z,57.37
2018-11-29T11:38:27.439Z,55.51
2018-11-29T11:39:27.430Z,54.06
2018-11-29T11:40:27.455Z,54.06
2018-11-29T11:41:27.426Z,55.00
2018-11-29T11:42:27.396Z,53.63
2018-11-29T11:43:27.389Z,55.38
2018-11-29T11:44:27.375Z,57.65
2018-11-29T11:45:27.368Z,56.85
2018-11-29T11:46:27.362Z,60.16
2018-11-29T11:47:27.343Z,61.60
2018-11-29T11:48:27.334Z,54.17
2018-11-29T11:49:27.318Z,54.48
2018-11-29T11:50:27.309Z,54.90
2018-11-29T11:51:27.310Z,55.41
2018-11-29T11:52:27.284Z,54.90
2018-11-29T11:53:27.272Z,56.03
2018-11-29T11:54:27.272Z,55.93
2018-11-29T11:55:30.312Z,56.34
2018-11-29T11:56:27.257Z,54.79
2018-11-29T11:57:27.227Z,56.44
2018-11-29T11:58:27.216Z,57.89
2018-11-29T11:59:27.205Z,60.05
2018-11-29T12:00:27.192Z,60.60
2018-11-29T12:01:27.199Z,58.94
2018-11-29T12:02:27.858Z,60.16
2018-11-29T12:03:27.159Z,60.70
2018-11-29T12:04:27.149Z,58.53
2018-11-29T12:05:27.137Z,59.67
2018-11-29T12:06:27.146Z,60.80
2018-11-29T12:07:27.114Z,60.08
2018-11-29T12:08:27.103Z,60.08
2018-11-29T12:09:27.093Z,55.74
2018-11-29T12:10:27.081Z,54.92
2018-11-29T12:11:27.081Z,58.12
2018-11-29T12:12:27.063Z,59.77
2018-11-29T12:13:27.047Z,56.98
2018-11-29T12:14:27.039Z,58.43
2018-11-29T12:15:27.024Z,59.98
2018-11-29T12:16:27.037Z,57.26
2018-11-29T12:17:27.001Z,57.06
2018-11-29T12:18:26.991Z,58.64
2018-11-29T12:19:26.980Z,55.62
2018-11-29T12:20:26.968Z,56.13
2018-11-29T12:21:26.971Z,51.70
2018-11-29T12:22:26.957Z,50.76
2018-11-29T12:23:26.921Z,51.70
2018-11-29T12:24:26.922Z,51.57
2018-11-29T12:25:26.914Z,52.70
2018-11-29T12:26:26.900Z,50.64
2018-11-29T12:27:26.900Z,51.46
2018-11-29T12:28:26.877Z,55.41
2018-11-29T12:29:26.866Z,54.97
2018-11-29T12:30:26.854Z,56.75
2018-11-29T12:31:26.845Z,52.52
2018-11-29T12:32:26.845Z,51.49
2018-11-29T12:33:26.822Z,52.29
2018-11-29T12:34:26.829Z,50.35
2018-11-29T12:35:26.800Z,50.12
2018-11-29T12:36:26.787Z,48.99
2018-11-29T12:37:26.804Z,49.71
2018-11-29T12:38:26.765Z,48.37
2018-11-29T12:39:26.753Z,48.78
2018-11-29T12:40:28.846Z,49.30
2018-11-29T12:41:26.730Z,52.81
2018-11-29T12:42:26.725Z,54.97
2018-11-29T12:43:26.708Z,50.23
2018-11-29T12:44:26.697Z,48.68
2018-11-29T12:45:26.679Z,50.23
2018-11-29T12:46:26.674Z,51.36
2018-11-29T12:47:26.675Z,52.60
2018-11-29T12:48:26.652Z,51.67
2018-11-29T12:49:26.647Z,51.67
2018-11-29T12:50:29.004Z,49.71
2018-11-29T12:51:28.939Z,50.12
2018-11-29T12:52:28.969Z,49.81
2018-11-29T12:53:26.843Z,48.68
2018-11-29T12:54:26.931Z,48.06
2018-11-29T12:55:26.851Z,49.30
2018-11-29T12:56:26.557Z,51.67
2018-11-29T12:57:26.556Z,52.70
2018-11-29T12:58:26.535Z,50.02
2018-11-29T12:59:26.518Z,48.68
2018-11-29T13:00:26.513Z,50.35
2018-11-29T13:01:26.501Z,48.49
2018-11-29T13:02:26.505Z,49.01
2018-11-29T13:03:26.486Z,50.15
2018-11-29T13:04:26.470Z,48.78
2018-11-29T13:05:26.454Z,49.73
2018-11-29T13:06:26.444Z,51.59
2018-11-29T13:07:26.448Z,52.73
2018-11-29T13:08:26.420Z,50.46
2018-11-29T13:09:26.405Z,50.76
2018-11-29T13:10:26.398Z,48.70
2018-11-29T13:11:26.416Z,52.21
2018-11-29T13:12:26.400Z,50.04
2018-11-29T13:13:27.562Z,48.29
2018-11-29T13:14:26.354Z,50.25
2018-11-29T13:15:26.501Z,50.97
2018-11-29T13:16:26.333Z,48.80
2018-11-29T13:17:26.342Z,50.76
2018-11-29T13:18:26.313Z,50.76
2018-11-29T13:19:26.291Z,50.35
2018-11-29T13:20:26.292Z,48.60
2018-11-29T13:21:26.302Z,46.74
2018-11-29T13:22:26.287Z,46.64
2018-11-29T13:23:26.255Z,52.00
2018-11-29T13:24:26.247Z,52.19
2018-11-29T13:25:26.246Z,49.63
2018-11-29T13:26:26.226Z,46.20
2018-11-29T13:27:26.228Z,46.10
2018-11-29T13:28:26.204Z,48.99
2018-11-29T13:29:26.198Z,47.96
2018-11-29T13:30:26.185Z,45.92
2018-11-29T13:31:26.175Z,48.49
2018-11-29T13:32:26.182Z,48.88
2018-11-29T13:33:26.158Z,48.60
2018-11-29T13:34:26.134Z,46.92
2018-11-29T13:35:26.131Z,48.91
2018-11-29T13:36:26.165Z,47.67
2018-11-29T13:37:26.222Z,49.32
2018-11-29T13:38:26.088Z,47.77
2018-11-29T13:39:26.078Z,50.46
2018-11-29T13:40:26.200Z,49.11
2018-11-29T13:41:26.055Z,48.70
2018-11-29T13:42:26.061Z,47.88
2018-11-29T13:43:26.035Z,49.94
2018-11-29T13:44:26.034Z,50.35
2018-11-29T13:45:26.013Z,49.65
2018-11-29T13:46:26.009Z,50.48
2018-11-29T13:47:26.011Z,44.18
2018-11-29T13:48:25.979Z,47.36
2018-11-29T13:49:25.971Z,50.04
2018-11-29T13:50:25.953Z,48.49
2018-11-29T13:51:25.947Z,49.04
2018-11-29T13:52:28.175Z,46.25
2018-11-29T13:53:26.113Z,44.68
2018-11-29T13:54:26.187Z,48.49
2018-11-29T13:55:25.926Z,52.21
2018-11-29T13:56:25.918Z,49.34
2018-11-29T13:57:26.649Z,50.48
2018-11-29T13:58:25.863Z,52.65
2018-11-29T13:59:28.388Z,46.77
2018-11-29T14:00:26.131Z,48.93
2018-11-29T14:01:25.888Z,47.17
2018-11-29T14:02:26.440Z,47.28
2018-11-29T14:03:26.085Z,49.76
2018-11-29T14:04:26.266Z,48.33
2018-11-29T14:05:26.289Z,52.15
2018-11-29T14:06:27.866Z,52.47
2018-11-29T14:07:31.324Z,51.02
2018-11-29T14:08:33.568Z,45.86
2018-11-29T14:09:26.935Z,49.26
2018-11-29T14:10:25.728Z,48.13
2018-11-29T14:11:25.748Z,50.17
2018-11-29T14:12:25.724Z,46.35
2018-11-29T14:13:25.693Z,46.35
2018-11-29T14:14:25.687Z,47.38
2018-11-29T14:15:25.683Z,47.38
2018-11-29T14:16:25.685Z,46.43
2018-11-29T14:17:25.684Z,44.16
2018-11-29T14:18:25.634Z,47.56
2018-11-29T14:19:25.639Z,49.63
2018-11-29T14:20:25.611Z,45.83
2018-11-29T14:21:25.610Z,45.61
2018-11-29T14:22:25.633Z,46.95
2018-11-29T14:23:25.589Z,44.39
2018-11-29T14:24:25.602Z,46.77
2018-11-29T14:25:25.574Z,42.51
2018-11-29T14:26:25.563Z,46.74
2018-11-29T14:27:25.531Z,44.57
2018-11-29T14:28:25.548Z,41.89
2018-11-29T14:29:25.510Z,44.16
2018-11-29T14:30:25.554Z,38.59
2018-11-29T14:31:25.485Z,43.23
2018-11-29T14:32:25.484Z,44.16
2018-11-29T14:33:25.499Z,43.44
2018-11-29T14:34:25.504Z,44.47
2018-11-29T14:35:25.465Z,45.71
2018-11-29T14:36:25.435Z,46.02
2018-11-29T14:37:25.418Z,48.29
2018-11-29T14:38:25.427Z,48.62
2018-11-29T14:39:25.401Z,45.03
2018-11-29T14:40:25.397Z,44.10
2018-11-29T14:41:25.374Z,43.89
2018-11-29T14:42:25.363Z,40.07
2018-11-29T14:43:25.372Z,46.37
2018-11-29T14:44:25.336Z,43.48
2018-11-29T14:45:25.334Z,39.12
2018-11-29T14:46:25.317Z,38.71
2018-11-29T14:47:25.306Z,39.74
2018-11-29T14:48:25.315Z,42.11
2018-11-29T14:49:25.283Z,43.35
2018-11-29T14:50:25.274Z,42.11
2018-11-29T14:51:25.261Z,40.36
2018-11-29T14:52:25.250Z,41.29
2018-11-29T14:53:25.259Z,38.92
2018-11-29T14:54:25.229Z,41.19
2018-11-29T14:55:25.221Z,39.86
2018-11-29T14:56:25.205Z,38.83
2018-11-29T14:57:25.197Z,39.74
2018-11-29T14:58:25.204Z,44.29
2018-11-29T14:59:25.176Z,44.10
2018-11-29T15:00:25.175Z,39.56
2018-11-29T15:01:25.168Z,40.38
2018-11-29T15:02:25.144Z,45.44
2018-11-29T15:03:25.131Z,39.14
2018-11-29T15:04:25.155Z,38.52
2018-11-29T15:05:25.110Z,38.40
2018-11-29T15:06:25.102Z,38.62
2018-11-29T15:07:25.085Z,39.74
2018-11-29T15:08:25.097Z,38.20
2018-11-29T15:09:25.064Z,40.80
2018-11-29T15:10:25.050Z,42.03
2018-11-29T15:11:29.285Z,42.96
2018-11-29T15:12:25.039Z,37.28
2018-11-29T15:13:25.030Z,39.56
2018-11-29T15:14:25.045Z,44.31
2018-11-29T15:15:24.992Z,41.31
2018-11-29T15:16:24.993Z,40.61
2018-11-29T15:17:24.971Z,42.26
2018-11-29T15:18:25.001Z,40.30
2018-11-29T15:19:24.950Z,42.49
2018-11-29T15:20:24.942Z,40.52
2018-11-29T15:21:24.926Z,40.94
2018-11-29T15:22:24.923Z,40.19
2018-11-29T15:23:24.917Z,36.47
2018-11-29T15:24:24.891Z,38.32
2018-11-29T15:25:24.883Z,39.86
2018-11-29T15:26:24.872Z,40.09
2018-11-29T15:27:24.863Z,36.15
2018-11-29T15:28:24.862Z,38.01
2018-11-29T15:29:24.837Z,39.45
2018-11-29T15:30:24.834Z,36.04
2018-11-29T15:31:24.812Z,36.77
2018-11-29T15:32:24.801Z,35.51
2018-11-29T15:33:24.808Z,37.16
2018-11-29T15:34:24.779Z,38.42
2018-11-29T15:35:24.768Z,35.82
2018-11-29T15:36:24.758Z,37.06
2018-11-29T15:37:24.763Z,37.38
2018-11-29T15:38:24.757Z,38.93
2018-11-29T15:39:24.724Z,35.53
2018-11-29T15:40:24.714Z,34.29
2018-11-29T15:41:24.698Z,36.44
2018-11-29T15:42:24.688Z,36.65
2018-11-29T15:43:24.695Z,39.02
2018-11-29T15:44:24.673Z,41.52
2018-11-29T15:45:24.761Z,43.17
2018-11-29T15:46:24.655Z,44.32
2018-11-29T15:47:24.634Z,39.78
2018-11-29T15:48:24.639Z,40.31
2018-11-29T15:49:24.611Z,36.80
2018-11-29T15:50:24.606Z,38.24
2018-11-29T15:51:24.605Z,37.19
2018-11-29T15:52:26.735Z,36.99
2018-11-29T15:53:26.608Z,37.30
2018-11-29T15:54:24.564Z,39.58
2018-11-29T15:55:24.552Z,37.32
2018-11-29T15:56:24.580Z,37.63
2018-11-29T15:57:24.519Z,39.47
2018-11-29T15:58:24.529Z,39.90
2018-11-29T15:59:24.495Z,36.37
2018-11-29T16:00:24.489Z,38.45
2018-11-29T16:01:24.482Z,39.16
2018-11-29T16:02:24.453Z,39.49
2018-11-29T16:03:24.466Z,41.25
2018-11-29T16:04:24.443Z,41.97
2018-11-29T16:05:24.436Z,38.56
2018-11-29T16:06:24.418Z,43.44
2018-11-29T16:07:24.416Z,38.66
2018-11-29T16:08:24.418Z,38.56
2018-11-29T16:09:24.392Z,37.84
2018-11-29T16:10:24.384Z,38.66
2018-11-29T16:11:24.376Z,38.76
2018-11-29T16:12:24.352Z,38.87
2018-11-29T16:13:24.378Z,44.14
2018-11-29T16:14:24.325Z,39.79
2018-11-29T16:15:24.316Z,36.59
2018-11-29T16:16:24.312Z,46.21
2018-11-29T16:17:24.309Z,45.92
2018-11-29T16:18:24.314Z,38.04
2018-11-29T16:19:24.269Z,43.93
2018-11-29T16:20:24.295Z,49.93
2018-11-29T16:21:24.250Z,42.30
2018-11-29T16:22:24.243Z,39.20
2018-11-29T16:23:24.248Z,39.49
2018-11-29T16:24:24.222Z,40.62
2018-11-29T16:25:24.208Z,46.00
2018-11-29T16:26:24.200Z,45.81
2018-11-29T16:27:24.181Z,38.68
2018-11-29T16:28:24.210Z,38.37
2018-11-29T16:29:24.161Z,34.42
2018-11-29T16:30:24.150Z,34.42
2018-11-29T16:31:24.140Z,33.15
2018-11-29T16:32:24.148Z,36.04
2018-11-29T16:33:24.127Z,33.77
2018-11-29T16:34:24.122Z,32.82
2018-11-29T16:35:24.097Z,37.06
2018-11-29T16:36:24.077Z,34.27
2018-11-29T16:37:24.096Z,35.30
2018-11-29T16:38:24.054Z,32.19
2018-11-29T16:39:24.066Z,30.54
2018-11-29T16:40:24.036Z,30.85
2018-11-29T16:41:24.027Z,33.95
2018-11-29T16:42:24.014Z,31.47
2018-11-29T16:43:24.014Z,34.34
2018-11-29T16:44:24.014Z,32.40
2018-11-29T16:45:23.984Z,33.84
2018-11-29T16:46:23.973Z,33.95
2018-11-29T16:47:23.962Z,30.95
2018-11-29T16:48:23.946Z,34.56
2018-11-29T16:49:23.950Z,37.04
2018-11-29T16:50:23.927Z,35.49
2018-11-29T16:51:23.911Z,32.19
2018-11-29T16:52:23.901Z,32.93
2018-11-29T16:53:23.896Z,32.29
2018-11-29T16:54:23.901Z,34.99
2018-11-29T16:55:23.872Z,36.52
2018-11-29T16:56:23.851Z,35.20
2018-11-29T16:57:23.848Z,35.30
2018-11-29T16:58:23.836Z,30.75
2018-11-29T16:59:23.844Z,32.09
2018-11-29T17:00:23.810Z,38.39
2018-11-29T17:01:23.799Z,40.16
2018-11-29T17:02:23.784Z,37.68
2018-11-29T17:03:23.784Z,32.21
2018-11-29T17:04:23.801Z,37.68
2018-11-29T17:05:27.503Z,34.17
2018-11-29T17:06:23.741Z,33.65
2018-11-29T17:07:25.236Z,31.59
2018-11-29T17:08:26.398Z,39.64
2018-11-29T17:09:24.562Z,32.82
2018-11-29T17:10:29.387Z,34.56
2018-11-29T17:11:28.066Z,34.25
2018-11-29T17:12:26.094Z,32.09
2018-11-29T17:13:26.457Z,31.37
2018-11-29T17:14:24.513Z,31.47
2018-11-29T17:15:24.088Z,31.68
2018-11-29T17:16:23.965Z,33.31
2018-11-29T17:17:23.629Z,33.53
2018-11-29T17:18:23.623Z,37.45
2018-11-29T17:19:27.355Z,37.97
2018-11-29T17:20:23.756Z,39.02
2018-11-29T17:21:23.577Z,40.05
2018-11-29T17:22:23.567Z,39.64
2018-11-29T17:23:23.591Z,39.43
2018-11-29T17:24:23.575Z,38.43
2018-11-29T17:25:23.543Z,42.26
2018-11-29T17:26:23.841Z,38.56
2018-11-29T17:27:24.642Z,40.83
2018-11-29T17:28:23.509Z,42.07
2018-11-29T17:29:25.514Z,39.90
2018-11-29T17:30:25.486Z,41.76
2018-11-29T17:31:23.822Z,38.35
2018-11-29T17:32:23.646Z,42.18
2018-11-29T17:33:23.437Z,41.76
2018-11-29T17:34:23.439Z,41.04
2018-11-29T17:35:23.415Z,41.45
2018-11-29T17:36:23.665Z,43.95
2018-11-29T17:37:23.392Z,45.50
2018-11-29T17:38:23.380Z,44.26
2018-11-29T17:39:23.382Z,45.50
2018-11-29T17:40:23.357Z,38.47
2018-11-29T17:41:23.346Z,36.49
2018-11-29T17:42:23.336Z,37.73
2018-11-29T17:43:23.324Z,35.77
2018-11-29T17:44:23.325Z,40.62
2018-11-29T17:45:23.302Z,39.79
2018-11-29T17:46:23.291Z,41.14
2018-11-29T17:47:23.282Z,41.45
2018-11-29T17:48:23.268Z,43.83
2018-11-29T17:49:23.275Z,43.62
2018-11-29T17:50:23.248Z,38.06
2018-11-29T17:51:23.236Z,44.57
2018-11-29T17:52:23.225Z,43.95